createdAt,value
2023-03-06T00:01:07.025Z,17.42
2023-03-06T00:03:29.641Z,15.27
2023-03-06T00:05:52.283Z,15.52
2023-03-06T00:08:15.705Z,21.00
2023-03-06T00:10:38.687Z,19.02
2023-03-06T00:13:04.098Z,20.05
2023-03-06T00:15:27.748Z,16.88
2023-03-06T00:17:50.405Z,17.48
2023-03-06T00:20:13.876Z,18.03
2023-03-06T00:22:36.606Z,20.60
2023-03-06T00:24:59.424Z,18.35
2023-03-06T00:27:22.044Z,19.45
2023-03-06T00:29:45.644Z,19.20
2023-03-06T00:32:09.102Z,17.10
2023-03-06T00:34:31.846Z,18.27
2023-03-06T00:36:54.529Z,17.35
2023-03-06T00:39:17.213Z,15.75
2023-03-06T00:41:39.810Z,18.00
2023-03-06T00:44:02.431Z,17.83
2023-03-06T00:46:25.153Z,18.63
2023-03-06T00:48:47.860Z,17.00
2023-03-06T00:51:13.800Z,17.58
2023-03-06T00:53:36.559Z,18.17
2023-03-06T00:55:59.072Z,17.90
2023-03-06T00:58:21.927Z,19.33
2023-03-06T01:00:45.597Z,17.98
2023-03-06T01:03:08.388Z,21.02
2023-03-06T01:05:34.328Z,18.65
2023-03-06T01:07:57.419Z,18.90
2023-03-06T01:10:21.636Z,18.33
2023-03-06T01:12:45.266Z,19.08
2023-03-06T01:15:08.523Z,19.08
2023-03-06T01:17:31.090Z,19.60
2023-03-06T01:19:53.615Z,17.77
2023-03-06T01:22:16.293Z,20.02
2023-03-06T01:24:39.189Z,17.95
2023-03-06T01:27:01.868Z,19.98
2023-03-06T01:29:26.381Z,20.00
2023-03-06T01:31:49.178Z,19.47
2023-03-06T01:34:12.152Z,17.02
2023-03-06T01:36:35.052Z,17.33
2023-03-06T01:38:58.776Z,18.80
2023-03-06T01:41:22.024Z,16.02
2023-03-06T01:43:46.453Z,17.50
2023-03-06T01:46:44.550Z,16.10
2023-03-06T01:49:15.927Z,15.98
2023-03-06T01:51:47.823Z,17.15
2023-03-06T01:54:22.943Z,19.92
2023-03-06T01:56:49.992Z,17.10
2023-03-06T01:59:13.623Z,16.23
2023-03-06T02:01:39.934Z,14.85
2023-03-06T02:04:02.754Z,16.85
2023-03-06T02:06:25.818Z,14.45
2023-03-06T02:08:52.352Z,16.80
2023-03-06T02:11:18.930Z,13.35
2023-03-06T02:13:44.779Z,13.88
2023-03-06T02:16:09.795Z,16.35
2023-03-06T02:18:33.940Z,16.15
2023-03-06T02:21:03.166Z,12.87
2023-03-06T02:24:02.079Z,14.40
2023-03-06T02:26:26.939Z,14.25
2023-03-06T02:28:51.125Z,15.18
2023-03-06T02:31:24.079Z,13.63
2023-03-06T02:33:46.823Z,13.80
2023-03-06T02:36:14.848Z,12.55
2023-03-06T02:38:45.599Z,13.27
2023-03-06T02:41:09.247Z,14.10
2023-03-06T02:43:35.536Z,13.43
2023-03-06T02:45:58.245Z,16.27
2023-03-06T02:48:21.556Z,15.35
2023-03-06T02:50:45.291Z,14.30
2023-03-06T02:53:09.519Z,14.55
2023-03-06T02:55:32.422Z,15.75
2023-03-06T02:57:55.699Z,13.93
2023-03-06T03:00:19.952Z,14.13
2023-03-06T03:02:42.943Z,14.77
2023-03-06T03:05:46.956Z,14.25
2023-03-06T03:08:20.107Z,14.40
2023-03-06T03:10:44.194Z,19.43
2023-03-06T03:13:09.449Z,13.65
2023-03-06T03:15:33.693Z,13.25
2023-03-06T03:17:56.736Z,13.70
2023-03-06T03:20:21.732Z,12.43
2023-03-06T03:22:53.811Z,13.83
2023-03-06T03:25:16.992Z,14.70
2023-03-06T03:27:40.033Z,16.58
2023-03-06T03:30:04.527Z,16.10
2023-03-06T03:32:27.584Z,15.15
2023-03-06T03:34:50.365Z,16.47
2023-03-06T03:37:13.747Z,16.15
2023-03-06T03:39:39.329Z,14.88
2023-03-06T03:42:01.958Z,15.90
2023-03-06T03:44:24.769Z,15.52
2023-03-06T03:46:48.377Z,15.77
2023-03-06T03:49:16.013Z,17.05
2023-03-06T03:51:39.947Z,18.05
2023-03-06T03:54:02.956Z,15.20
2023-03-06T03:56:31.550Z,17.05
2023-03-06T03:58:59.848Z,16.53
2023-03-06T04:01:27.611Z,16.42
2023-03-06T04:03:51.190Z,15.77
2023-03-06T04:06:14.962Z,16.00
2023-03-06T04:08:37.866Z,16.27
2023-03-06T04:11:00.689Z,17.43
2023-03-06T04:13:24.733Z,16.08
2023-03-06T04:15:50.150Z,17.42
2023-03-06T04:18:16.669Z,19.60
2023-03-06T04:20:40.012Z,17.00
2023-03-06T04:23:03.119Z,15.57
2023-03-06T04:25:25.706Z,13.90
2023-03-06T04:27:48.325Z,18.33
2023-03-06T04:30:12.035Z,16.02
2023-03-06T04:32:35.972Z,16.77
2023-03-06T04:34:58.733Z,16.37
2023-03-06T04:37:25.679Z,17.05
2023-03-06T04:39:50.639Z,16.77
2023-03-06T04:42:13.574Z,16.08
2023-03-06T04:44:36.104Z,15.43
2023-03-06T04:46:58.763Z,16.67
2023-03-06T04:49:21.393Z,18.33
2023-03-06T04:51:44.096Z,14.88
2023-03-06T04:54:06.757Z,19.65
2023-03-06T04:56:30.608Z,16.02
2023-03-06T04:58:53.518Z,14.60
2023-03-06T05:01:16.541Z,16.20
2023-03-06T05:03:39.198Z,19.67
2023-03-06T05:06:02.094Z,16.27
2023-03-06T05:08:24.944Z,16.38
2023-03-06T05:11:02.322Z,16.53
2023-03-06T05:13:26.157Z,18.38
2023-03-06T05:15:48.692Z,17.50
2023-03-06T05:18:11.472Z,18.13
2023-03-06T05:20:34.160Z,17.27
2023-03-06T05:22:56.982Z,19.03
2023-03-06T05:25:19.652Z,19.17
2023-03-06T05:27:42.540Z,18.65
2023-03-06T05:30:05.874Z,17.02
2023-03-06T05:32:28.776Z,17.38
2023-03-06T05:34:52.090Z,17.13
2023-03-06T05:37:14.794Z,16.25
2023-03-06T05:39:37.642Z,17.50
2023-03-06T05:42:01.025Z,17.38
2023-03-06T05:44:24.050Z,18.65
2023-03-06T05:46:49.364Z,17.47
2023-03-06T05:49:11.958Z,17.17
2023-03-06T05:51:34.652Z,18.48
2023-03-06T05:53:57.272Z,27.65
2023-03-06T05:56:21.806Z,18.65
2023-03-06T05:58:44.457Z,18.23
2023-03-06T06:01:16.442Z,18.75
2023-03-06T06:03:39.446Z,21.30
2023-03-06T06:06:07.559Z,20.75
2023-03-06T06:08:30.352Z,21.75
2023-03-06T06:10:53.546Z,21.73
2023-03-06T06:13:16.277Z,18.95
2023-03-06T06:15:39.073Z,17.73
2023-03-06T06:18:01.768Z,19.77
2023-03-06T06:20:25.212Z,22.45
2023-03-06T06:22:47.937Z,21.20
2023-03-06T06:25:10.579Z,23.58
2023-03-06T06:27:33.682Z,19.90
2023-03-06T06:29:56.268Z,20.60
2023-03-06T06:32:19.368Z,17.98
2023-03-06T06:34:42.076Z,21.37
2023-03-06T06:37:04.747Z,18.73
2023-03-06T06:39:27.617Z,20.17
2023-03-06T06:42:05.626Z,23.08
2023-03-06T06:44:34.280Z,22.95
2023-03-06T06:47:21.911Z,25.47
2023-03-06T06:49:40.796Z,24.77
2023-03-06T06:52:05.016Z,22.67
2023-03-06T06:54:28.343Z,22.38
2023-03-06T06:56:51.395Z,25.23
2023-03-06T06:59:17.019Z,19.43
2023-03-06T07:01:40.651Z,22.30
2023-03-06T07:04:03.835Z,21.17
2023-03-06T07:06:26.669Z,20.80
2023-03-06T07:08:49.634Z,18.10
2023-03-06T07:11:17.151Z,18.80
2023-03-06T07:13:40.083Z,19.70
2023-03-06T07:16:02.868Z,19.13
2023-03-06T07:18:25.652Z,19.95
2023-03-06T07:20:48.359Z,20.15
2023-03-06T07:23:13.515Z,23.07
2023-03-06T07:25:37.383Z,18.85
2023-03-06T07:28:00.357Z,21.50
2023-03-06T07:30:23.487Z,19.45
2023-03-06T07:32:46.261Z,19.17
2023-03-06T07:35:19.730Z,21.20
2023-03-06T07:37:43.804Z,21.95
2023-03-06T07:40:07.874Z,21.00
2023-03-06T07:42:30.551Z,21.02
2023-03-06T07:44:57.252Z,21.13
2023-03-06T07:47:20.144Z,19.33
2023-03-06T07:52:19.254Z,18.38
2023-03-06T07:54:42.119Z,16.55
2023-03-06T07:57:04.986Z,18.10
2023-03-06T07:59:27.766Z,14.57
2023-03-06T08:01:50.439Z,17.63
2023-03-06T08:04:13.545Z,17.48
2023-03-06T08:06:36.245Z,14.65
2023-03-06T08:08:59.277Z,13.98
2023-03-06T08:11:24.670Z,14.83
2023-03-06T08:13:48.902Z,14.60
2023-03-06T08:16:12.195Z,16.02
2023-03-06T08:18:35.201Z,12.40
2023-03-06T08:21:07.377Z,14.38
2023-03-06T08:23:30.547Z,14.00
2023-03-06T08:26:00.665Z,13.15
2023-03-06T08:28:23.440Z,12.65
2023-03-06T08:30:46.169Z,15.45
2023-03-06T08:33:10.327Z,13.30
2023-03-06T08:35:33.023Z,15.63
2023-03-06T08:37:57.134Z,15.00
2023-03-06T08:40:23.279Z,16.63
2023-03-06T08:42:47.928Z,14.68
2023-03-06T08:45:11.081Z,16.52
2023-03-06T08:47:35.504Z,16.03
2023-03-06T08:50:00.389Z,14.40
2023-03-06T08:52:23.418Z,14.25
2023-03-06T08:54:46.413Z,14.00
2023-03-06T08:57:09.341Z,16.90
2023-03-06T08:59:32.042Z,13.97
2023-03-06T09:01:55.328Z,14.32
2023-03-06T09:04:17.969Z,15.02
2023-03-06T09:06:43.414Z,15.52
2023-03-06T09:09:07.016Z,17.83
2023-03-06T09:11:29.914Z,16.90
2023-03-06T09:13:54.094Z,16.42
2023-03-06T09:16:16.985Z,19.10
2023-03-06T09:18:40.128Z,16.85
2023-03-06T09:21:04.076Z,17.77
2023-03-06T09:23:26.856Z,15.77
2023-03-06T09:25:58.039Z,18.10
2023-03-06T09:28:21.590Z,17.38
2023-03-06T09:30:44.359Z,19.40
2023-03-06T09:33:07.091Z,17.63
2023-03-06T09:35:29.891Z,19.17
2023-03-06T09:37:52.727Z,16.80
2023-03-06T09:40:49.414Z,19.40
2023-03-06T09:43:21.505Z,16.67
2023-03-06T09:45:45.301Z,22.10
2023-03-06T09:48:15.037Z,17.53
2023-03-06T09:50:55.268Z,21.55
2023-03-06T09:53:52.137Z,17.20
2023-03-06T09:56:49.688Z,17.45
2023-03-06T09:59:21.406Z,17.73
2023-03-06T10:02:12.705Z,16.47
2023-03-06T10:04:42.744Z,17.80
2023-03-06T10:07:28.374Z,16.33
2023-03-06T10:10:03.467Z,17.55
2023-03-06T10:13:05.818Z,17.48
2023-03-06T10:15:39.518Z,17.60
2023-03-06T10:18:04.638Z,17.27
2023-03-06T10:20:33.840Z,18.38
2023-03-06T10:23:03.138Z,19.42
2023-03-06T10:25:33.621Z,14.20
2023-03-06T10:28:11.242Z,18.63
2023-03-06T10:30:48.309Z,15.80
2023-03-06T10:33:23.257Z,14.75
2023-03-06T10:35:55.050Z,14.88
2023-03-06T10:38:28.206Z,15.40
2023-03-06T10:41:13.277Z,16.90
2023-03-06T10:43:39.549Z,14.43
2023-03-06T10:46:04.029Z,17.35
2023-03-06T10:48:29.344Z,14.23
2023-03-06T10:50:55.082Z,15.93
2023-03-06T10:53:31.028Z,16.80
2023-03-06T10:56:34.895Z,18.33
2023-03-06T10:59:25.576Z,18.23
2023-03-06T11:01:50.671Z,15.82
2023-03-06T11:04:28.790Z,15.10
2023-03-06T11:07:21.886Z,14.77
2023-03-06T11:10:08.024Z,18.30
2023-03-06T11:12:33.544Z,14.95
2023-03-06T11:15:14.340Z,16.88
2023-03-06T11:17:50.412Z,17.58
2023-03-06T11:20:20.052Z,15.90
2023-03-06T11:22:49.273Z,17.00
2023-03-06T11:25:15.154Z,15.40
2023-03-06T11:27:42.766Z,18.40
2023-03-06T11:30:17.943Z,15.25
2023-03-06T11:32:48.083Z,15.03
2023-03-06T11:35:16.330Z,17.90
2023-03-06T11:37:44.094Z,17.15
2023-03-06T11:40:19.500Z,19.88
2023-03-06T11:42:47.970Z,15.63
2023-03-06T11:45:36.825Z,16.07
2023-03-06T11:48:14.733Z,17.70
2023-03-06T11:50:39.737Z,17.80
2023-03-06T11:53:05.223Z,17.30
2023-03-06T11:55:54.176Z,16.98
2023-03-06T11:58:41.024Z,16.97
2023-03-06T12:01:13.588Z,17.10
2023-03-06T12:04:04.920Z,16.27
2023-03-06T12:06:30.245Z,15.73
2023-03-06T12:09:19.364Z,18.05
2023-03-06T12:12:02.882Z,19.35
2023-03-06T12:14:33.097Z,15.52
2023-03-06T12:17:22.852Z,22.02
2023-03-06T12:20:20.227Z,19.05
2023-03-06T12:22:44.319Z,17.23
2023-03-06T12:25:31.482Z,18.50
2023-03-06T12:28:19.353Z,20.27
2023-03-06T12:31:16.323Z,17.67
2023-03-06T12:34:00.304Z,18.50
2023-03-06T12:36:47.106Z,16.65
2023-03-06T12:39:40.142Z,16.90
2023-03-06T12:42:23.745Z,17.55
2023-03-06T12:44:49.295Z,20.88
2023-03-06T12:47:15.684Z,19.42
2023-03-06T12:49:46.384Z,20.38
2023-03-06T12:52:24.779Z,18.80
2023-03-06T12:54:54.281Z,20.80
2023-03-06T12:57:16.931Z,19.67
2023-03-06T12:59:44.299Z,20.05
2023-03-06T13:02:10.102Z,20.05
2023-03-06T13:05:00.693Z,21.70
2023-03-06T13:07:49.155Z,21.95
2023-03-06T13:10:25.509Z,22.75
2023-03-06T13:12:57.333Z,24.63
2023-03-06T13:15:38.078Z,21.15
2023-03-06T13:18:01.569Z,23.38
2023-03-06T13:20:35.108Z,23.45
2023-03-06T13:22:58.635Z,21.95
2023-03-06T13:25:21.358Z,21.23
2023-03-06T13:27:53.615Z,24.80
2023-03-06T13:30:27.269Z,22.30
2023-03-06T13:32:52.860Z,20.48
2023-03-06T13:35:33.486Z,22.90
2023-03-06T13:37:57.259Z,22.77
2023-03-06T13:40:30.370Z,22.27
2023-03-06T13:42:53.208Z,23.50
2023-03-06T13:45:38.681Z,22.38
2023-03-06T13:48:37.580Z,22.40
2023-03-06T13:50:48.949Z,25.50
2023-03-06T13:53:49.051Z,21.23
2023-03-06T13:56:26.993Z,22.35
2023-03-06T13:58:49.647Z,20.67
2023-03-06T14:01:34.016Z,23.60
2023-03-06T14:04:17.162Z,20.60
2023-03-06T14:06:48.278Z,22.50
2023-03-06T14:09:24.042Z,21.27
2023-03-06T14:12:02.491Z,24.42
2023-03-06T14:14:43.205Z,23.80
2023-03-06T14:17:06.294Z,23.92
2023-03-06T14:19:32.742Z,22.70
2023-03-06T14:21:57.614Z,28.75
2023-03-06T14:24:48.119Z,27.27
2023-03-06T14:27:18.816Z,23.33
2023-03-06T14:29:41.572Z,23.48
2023-03-06T14:32:10.803Z,22.95
2023-03-06T14:34:40.955Z,23.77
2023-03-06T14:37:07.695Z,22.90
2023-03-06T14:39:36.341Z,21.75
2023-03-06T14:42:28.995Z,24.60
2023-03-06T14:45:18.628Z,23.13
2023-03-06T14:47:41.417Z,25.25
2023-03-06T14:50:26.296Z,22.85
2023-03-06T14:53:04.838Z,24.30
2023-03-06T14:55:29.731Z,24.88
2023-03-06T14:58:00.548Z,25.67
2023-03-06T15:00:28.041Z,23.50
2023-03-06T15:02:52.689Z,25.63
2023-03-06T15:05:29.552Z,27.40
2023-03-06T15:07:55.437Z,23.85
2023-03-06T15:10:31.581Z,25.13
2023-03-06T15:12:54.663Z,23.67
2023-03-06T15:15:17.757Z,23.92
2023-03-06T15:17:42.424Z,22.65
2023-03-06T15:20:08.263Z,22.55
2023-03-06T15:22:40.313Z,23.77
2023-03-06T15:25:32.548Z,25.67
2023-03-06T15:28:02.395Z,25.50
2023-03-06T15:30:29.861Z,25.55
2023-03-06T15:33:08.256Z,22.98
2023-03-06T15:35:33.905Z,29.65
2023-03-06T15:37:58.622Z,25.57
2023-03-06T15:40:23.563Z,28.52
2023-03-06T15:42:46.570Z,27.40
2023-03-06T15:45:20.354Z,27.65
2023-03-06T15:47:44.864Z,30.48
2023-03-06T15:50:18.779Z,30.17
2023-03-06T15:52:41.653Z,24.67
2023-03-06T15:55:04.689Z,31.33
2023-03-06T15:57:31.432Z,27.15
2023-03-06T15:59:54.540Z,28.52
2023-03-06T16:02:19.846Z,29.93
2023-03-06T16:04:42.664Z,28.35
2023-03-06T16:07:05.325Z,27.67
2023-03-06T16:09:28.101Z,26.42
2023-03-06T16:11:51.046Z,29.38
2023-03-06T16:14:23.690Z,27.90
2023-03-06T16:16:46.817Z,26.20
2023-03-06T16:19:25.392Z,28.10
2023-03-06T16:21:49.142Z,27.75
2023-03-06T16:24:15.092Z,29.08
2023-03-06T16:26:38.483Z,29.60
2023-03-06T16:29:02.128Z,30.10
2023-03-06T16:31:25.839Z,31.52
2023-03-06T16:33:48.650Z,28.25
2023-03-06T16:36:23.315Z,29.52
2023-03-06T16:38:46.278Z,29.67
2023-03-06T16:41:09.261Z,25.85
2023-03-06T16:43:31.893Z,23.05
2023-03-06T16:45:55.529Z,28.40
2023-03-06T16:48:18.401Z,27.45
2023-03-06T16:50:41.218Z,30.03
2023-03-06T16:53:04.693Z,26.35
2023-03-06T16:55:27.867Z,28.17
2023-03-06T16:57:51.038Z,30.77
2023-03-06T17:00:15.826Z,29.98
2023-03-06T17:02:39.714Z,30.20
2023-03-06T17:05:02.462Z,28.35
2023-03-06T17:07:25.470Z,28.67
2023-03-06T17:09:48.242Z,29.27
2023-03-06T17:12:11.103Z,28.60
2023-03-06T17:14:34.206Z,29.43
2023-03-06T17:16:58.427Z,31.60
2023-03-06T17:19:21.255Z,31.45
2023-03-06T17:21:44.403Z,31.88
2023-03-06T17:24:07.808Z,31.42
2023-03-06T17:26:30.940Z,26.80
2023-03-06T17:28:55.964Z,29.77
2023-03-06T17:31:21.757Z,28.10
2023-03-06T17:33:45.051Z,27.80
2023-03-06T17:36:09.035Z,26.08
2023-03-06T17:38:32.085Z,28.67
2023-03-06T17:40:55.242Z,24.95
2023-03-06T17:43:17.950Z,24.55
2023-03-06T17:45:40.596Z,28.02
2023-03-06T17:48:03.408Z,29.50
2023-03-06T17:50:26.280Z,28.30
2023-03-06T17:52:49.133Z,28.27
2023-03-06T17:55:13.027Z,27.67
2023-03-06T17:57:35.906Z,30.02
2023-03-06T17:59:59.203Z,28.48
2023-03-06T18:02:22.059Z,26.67
2023-03-06T18:04:45.094Z,29.25
2023-03-06T18:07:08.606Z,32.22
2023-03-06T18:09:31.587Z,32.53
2023-03-06T18:11:54.898Z,31.98
2023-03-06T18:14:17.934Z,30.27
2023-03-06T18:16:41.051Z,31.83
2023-03-06T18:19:04.186Z,30.70
2023-03-06T18:21:27.127Z,32.15
2023-03-06T18:23:50.032Z,34.15
2023-03-06T18:26:14.001Z,34.23
2023-03-06T18:28:37.043Z,29.80
2023-03-06T18:31:00.121Z,32.95
2023-03-06T18:33:23.306Z,31.08
2023-03-06T18:35:46.129Z,36.15
2023-03-06T18:38:09.105Z,31.07
2023-03-06T18:40:32.102Z,33.13
2023-03-06T18:42:55.122Z,29.35
2023-03-06T18:45:18.057Z,32.00
2023-03-06T18:47:41.103Z,30.63
2023-03-06T18:50:03.955Z,30.80
2023-03-06T18:52:27.311Z,30.35
2023-03-06T18:54:50.995Z,31.02
2023-03-06T18:57:13.559Z,31.77
2023-03-06T18:59:37.003Z,31.98
2023-03-06T19:01:59.956Z,29.57
2023-03-06T19:04:23.089Z,28.10
2023-03-06T19:06:45.934Z,29.20
2023-03-06T19:09:11.320Z,32.13
2023-03-06T19:11:34.465Z,29.52
2023-03-06T19:13:58.083Z,33.93
2023-03-06T19:16:29.943Z,35.60
2023-03-06T19:18:55.708Z,32.05
2023-03-06T19:21:21.011Z,40.22
2023-03-06T19:23:45.605Z,41.97
2023-03-06T19:26:10.495Z,33.23
2023-03-06T19:28:35.227Z,34.42
2023-03-06T19:31:00.197Z,33.47
2023-03-06T19:33:23.182Z,30.77
2023-03-06T19:35:46.587Z,39.75
2023-03-06T19:38:10.314Z,32.37
2023-03-06T19:40:34.142Z,32.22
2023-03-06T19:42:57.008Z,36.42
2023-03-06T19:45:19.943Z,34.25
2023-03-06T19:47:42.756Z,34.95
2023-03-06T19:50:06.132Z,37.20
2023-03-06T19:52:29.136Z,35.72
2023-03-06T19:54:52.483Z,36.20
2023-03-06T19:57:15.453Z,32.95
2023-03-06T19:59:39.978Z,32.88
2023-03-06T20:02:02.834Z,34.13
2023-03-06T20:04:26.294Z,35.53
2023-03-06T20:06:52.605Z,33.10
2023-03-06T20:09:15.569Z,34.45
2023-03-06T20:11:38.820Z,36.70
2023-03-06T20:14:04.213Z,39.80
2023-03-06T20:16:30.668Z,38.83
2023-03-06T20:18:54.712Z,37.97
2023-03-06T20:21:17.671Z,39.65
2023-03-06T20:23:41.780Z,36.35
2023-03-06T20:26:06.797Z,38.67
2023-03-06T20:28:30.464Z,34.88
2023-03-06T20:30:53.699Z,37.42
2023-03-06T20:33:16.946Z,33.65
2023-03-06T20:35:42.123Z,36.78
2023-03-06T20:38:05.394Z,36.43
2023-03-06T20:40:28.411Z,35.72
2023-03-06T20:42:51.437Z,33.88
2023-03-06T20:45:15.566Z,37.25
2023-03-06T20:47:38.502Z,35.17
2023-03-06T20:50:01.485Z,35.23
2023-03-06T20:52:24.557Z,36.42
2023-03-06T20:54:48.210Z,37.05
2023-03-06T20:57:10.868Z,34.15
2023-03-06T20:59:33.702Z,35.25
2023-03-06T21:01:56.574Z,36.63
2023-03-06T21:04:19.434Z,37.33
2023-03-06T21:06:46.498Z,38.35
2023-03-06T21:09:10.917Z,38.63
2023-03-06T21:11:34.938Z,39.80
2023-03-06T21:13:57.819Z,38.80
2023-03-06T21:16:22.362Z,38.92
2023-03-06T21:18:45.649Z,38.05
2023-03-06T21:21:19.685Z,41.88
2023-03-06T21:23:42.534Z,42.30
2023-03-06T21:26:06.002Z,39.70
2023-03-06T21:28:29.018Z,37.25
2023-03-06T21:30:52.039Z,35.83
2023-03-06T21:33:20.620Z,38.55
2023-03-06T21:35:44.993Z,34.97
2023-03-06T21:38:08.418Z,44.37
2023-03-06T21:40:31.309Z,44.25
2023-03-06T21:42:53.935Z,48.03
2023-03-06T21:45:16.628Z,44.63
2023-03-06T21:47:41.006Z,55.13
2023-03-06T21:50:08.090Z,70.23
2023-03-06T21:52:30.760Z,60.80
2023-03-06T21:54:53.387Z,62.88
2023-03-06T21:57:16.016Z,68.07
2023-03-06T21:59:39.533Z,66.50
2023-03-06T22:02:02.641Z,53.03
2023-03-06T22:04:25.230Z,46.72
2023-03-06T22:06:47.833Z,41.72
2023-03-06T22:09:12.938Z,41.83
2023-03-06T22:11:38.721Z,40.20
2023-03-06T22:14:01.309Z,40.80
2023-03-06T22:16:24.624Z,38.58
2023-03-06T22:18:49.637Z,39.40
2023-03-06T22:21:15.334Z,37.67
2023-03-06T22:23:38.684Z,35.40
2023-03-06T22:26:04.091Z,41.93
2023-03-06T22:28:27.257Z,38.78
2023-03-06T22:30:50.027Z,37.22
2023-03-06T22:33:13.181Z,39.58
2023-03-06T22:35:35.968Z,37.63
2023-03-06T22:37:58.797Z,42.67
2023-03-06T22:40:21.533Z,40.53
2023-03-06T22:42:44.054Z,39.72
2023-03-06T22:45:07.171Z,40.40
2023-03-06T22:47:29.798Z,41.22
2023-03-06T22:49:52.477Z,43.47
2023-03-06T22:52:15.384Z,39.53
2023-03-06T22:54:37.975Z,44.30
2023-03-06T22:57:00.614Z,40.60
2023-03-06T22:59:23.199Z,44.17
2023-03-06T23:01:45.815Z,40.93
2023-03-06T23:04:11.399Z,38.95
2023-03-06T23:06:36.590Z,39.45
2023-03-06T23:09:14.623Z,38.22
2023-03-06T23:11:55.708Z,41.28
2023-03-06T23:14:37.677Z,43.03
2023-03-06T23:17:19.194Z,39.28
2023-03-06T23:20:00.604Z,43.60
2023-03-06T23:22:42.194Z,42.15
2023-03-06T23:25:23.614Z,41.50
2023-03-06T23:27:46.292Z,42.97
2023-03-06T23:30:09.621Z,38.70
2023-03-06T23:32:33.739Z,42.28
2023-03-06T23:34:56.324Z,46.30
2023-03-06T23:37:18.981Z,44.05
2023-03-06T23:39:42.438Z,45.93
2023-03-06T23:42:05.513Z,42.83
2023-03-06T23:44:28.249Z,38.55
2023-03-06T23:46:50.993Z,40.80
2023-03-06T23:49:34.489Z,41.65
2023-03-06T23:51:57.527Z,44.03
2023-03-06T23:54:20.134Z,41.38
2023-03-06T23:56:42.746Z,44.58
2023-03-06T23:59:05.656Z,43.40
